Time;durP1;ratioP1;P1;durP2;ratioP2;P2;SDS_P1;SDS_P2;PMS_P1;PMS_P2;Temp;Humidity;BMP_temperature;BMP_pressure;BME280_temperature;BME280_humidity;BME280_pressure;Samples;Min_cycle;Max_cycle;Signal;HPM_P1;HPM_P2
2022/04/18 00:02:26;;;;;;;6.28;3.60;;;6.50;1.00;;;;;;7361170;19;20003;-63
2022/04/18 00:04:56;;;;;;;3.95;3.30;;;6.50;1.00;;;;;;7365321;19;20018;-62
2022/04/18 00:07:26;;;;;;;5.13;3.20;;;6.40;1.00;;;;;;7368317;19;20479;-63
2022/04/18 00:09:58;;;;;;;4.10;3.05;;;6.40;1.00;;;;;;7368373;19;20004;-63
2022/04/18 00:12:28;;;;;;;5.10;3.00;;;6.40;1.00;;;;;;7383402;19;20094;-62
2022/04/18 00:14:58;;;;;;;5.80;3.47;;;6.30;1.00;;;;;;7362248;19;20031;-64
2022/04/18 00:17:28;;;;;;;6.55;3.40;;;6.20;1.00;;;;;;7367193;19;20016;-64
2022/04/18 00:19:58;;;;;;;5.30;3.70;;;6.20;1.00;;;;;;7367239;19;20010;-63
2022/04/18 00:22:28;;;;;;;4.93;3.20;;;6.20;1.00;;;;;;7359974;19;20628;-63
2022/04/18 00:25:00;;;;;;;4.50;3.28;;;6.10;1.00;;;;;;7363345;19;20010;-63
2022/04/18 00:27:31;;;;;;;4.10;3.40;;;6.10;1.00;;;;;;7389858;19;20041;-62
2022/04/18 00:30:01;;;;;;;4.63;3.20;;;6.10;1.00;;;;;;7367426;19;20183;-62
2022/04/18 00:32:31;;;;;;;6.00;3.60;;;6.00;1.00;;;;;;7359772;19;20013;-62
2022/04/18 00:35:02;;;;;;;5.45;3.20;;;6.00;1.00;;;;;;7362855;19;20011;-63
2022/04/18 00:37:32;;;;;;;6.35;3.45;;;5.90;1.00;;;;;;7367094;19;20014;-62
2022/04/18 00:40:06;;;;;;;6.15;4.53;;;5.90;1.00;;;;;;7367822;19;20093;-61
2022/04/18 00:42:36;;;;;;;6.40;4.20;;;5.90;1.00;;;;;;7363206;19;20014;-62
2022/04/18 00:45:08;;;;;;;3.63;3.30;;;5.90;1.00;;;;;;7384099;19;20090;-62
2022/04/18 00:47:38;;;;;;;4.28;3.65;;;5.90;1.00;;;;;;7366845;19;20073;-61
2022/04/18 00:50:09;;;;;;;4.70;3.80;;;5.90;1.00;;;;;;7367108;19;20062;-62
2022/04/18 00:52:40;;;;;;;5.78;3.85;;;5.80;1.00;;;;;;7361193;19;20014;-62
2022/04/18 00:55:13;;;;;;;6.32;3.75;;;5.60;1.00;;;;;;7362880;19;20078;-62
2022/04/18 00:57:44;;;;;;;6.03;3.95;;;5.60;1.00;;;;;;7366954;19;20382;-61
2022/04/18 01:00:14;;;;;;;5.28;3.70;;;5.70;1.00;;;;;;7388044;19;20014;-64
2022/04/18 01:02:44;;;;;;;5.25;3.47;;;5.60;1.00;;;;;;7361580;19;20033;-63
2022/04/18 01:05:14;;;;;;;6.63;4.20;;;5.60;1.00;;;;;;7362473;19;20017;-64
2022/04/18 01:07:44;;;;;;;8.02;3.95;;;5.60;1.00;;;;;;7367215;19;20021;-64
2022/04/18 01:10:16;;;;;;;7.03;4.30;;;5.60;1.00;;;;;;7366465;19;20476;-64
2022/04/18 01:12:46;;;;;;;6.47;4.10;;;5.60;1.00;;;;;;7362032;19;20015;-64
2022/04/18 01:15:16;;;;;;;5.95;4.22;;;5.50;1.00;;;;;;7382370;19;20603;-64
2022/04/18 01:17:46;;;;;;;6.63;3.95;;;5.50;1.00;;;;;;7366162;19;20049;-63
2022/04/18 01:20:16;;;;;;;5.97;3.72;;;5.50;1.00;;;;;;7365300;19;20020;-64
2022/04/18 01:22:48;;;;;;;4.32;3.35;;;5.40;1.00;;;;;;7362217;19;20007;-62
2022/04/18 01:30:51;;;;;;;5.30;3.67;;;5.30;1.00;;;;;;7359946;19;20018;-64
2022/04/18 01:33:21;;;;;;;8.70;4.35;;;5.20;1.00;;;;;;7381502;19;20020;-63
2022/04/18 01:35:51;;;;;;;5.13;3.83;;;5.20;1.00;;;;;;7358313;19;20007;-63
2022/04/18 01:38:24;;;;;;;5.88;4.30;;;5.10;1.00;;;;;;7362601;19;20378;-63
2022/04/18 01:40:54;;;;;;;4.57;3.47;;;5.10;1.00;;;;;;7360643;19;20073;-62
2022/04/18 01:43:24;;;;;;;6.40;3.65;;;5.10;1.00;;;;;;7362100;19;20007;-63
2022/04/18 01:45:54;;;;;;;6.47;4.10;;;5.10;1.00;;;;;;7354808;19;20102;-63
2022/04/18 01:48:23;;;;;;;5.93;4.00;;;5.10;1.00;;;;;;7384391;19;20022;-63
2022/04/18 01:50:53;;;;;;;5.38;4.00;;;5.10;1.00;;;;;;7360424;19;20096;-63
2022/04/18 01:53:27;;;;;;;7.30;4.05;;;5.00;1.00;;;;;;7361008;19;20109;-63
2022/04/18 01:55:57;;;;;;;6.28;4.03;;;5.00;1.00;;;;;;7357844;19;20082;-63
2022/04/18 01:58:27;;;;;;;6.80;4.07;;;5.00;1.00;;;;;;7362468;19;20010;-63
2022/04/18 02:00:57;;;;;;;5.57;4.00;;;4.90;1.00;;;;;;7356940;19;20406;-62
2022/04/18 02:03:27;;;;;;;4.47;3.67;;;4.90;1.00;;;;;;7383584;19;20637;-62
2022/04/18 02:05:57;;;;;;;4.30;3.50;;;5.10;1.00;;;;;;7359311;19;20044;-62
2022/04/18 02:08:29;;;;;;;8.65;3.65;;;5.20;1.00;;;;;;7364199;19;20529;-62
2022/04/18 02:10:59;;;;;;;7.38;4.10;;;5.10;1.00;;;;;;7358433;19;20032;-62
2022/04/18 02:13:29;;;;;;;5.03;3.45;;;5.00;1.00;;;;;;7359134;19;20011;-61
2022/04/18 02:15:59;;;;;;;5.18;3.63;;;5.00;1.00;;;;;;7359591;19;20011;-62
2022/04/18 02:18:29;;;;;;;7.38;4.13;;;5.00;1.00;;;;;;7386105;19;20120;-62
2022/04/18 02:20:59;;;;;;;5.40;3.63;;;5.00;1.00;;;;;;7353695;19;20192;-63
2022/04/18 02:23:32;;;;;;;5.50;3.88;;;4.90;1.00;;;;;;7357752;19;20039;-62
2022/04/18 02:26:02;;;;;;;5.65;3.80;;;4.90;1.00;;;;;;7358894;19;20049;-62
2022/04/18 02:28:32;;;;;;;5.05;3.80;;;5.00;1.00;;;;;;7363209;19;20006;-63
2022/04/18 02:31:02;;;;;;;6.45;3.97;;;4.90;1.00;;;;;;7359050;19;20102;-63
2022/04/18 02:33:30;;;;;;;6.53;3.97;;;4.90;1.00;;;;;;7379997;19;20108;-64
2022/04/18 02:36:01;;;;;;;6.93;3.50;;;4.80;1.00;;;;;;7357287;19;20017;-63
2022/04/18 02:38:33;;;;;;;6.18;3.80;;;4.90;1.00;;;;;;7362368;19;20010;-62
2022/04/18 02:41:03;;;;;;;4.65;3.30;;;4.90;1.00;;;;;;7358790;19;20022;-62
2022/04/18 02:43:33;;;;;;;5.03;3.95;;;4.90;1.00;;;;;;7358321;19;20521;-63
2022/04/18 02:46:02;;;;;;;5.05;3.35;;;4.80;1.00;;;;;;7359127;19;20074;-63
2022/04/18 02:48:32;;;;;;;7.78;3.67;;;4.90;1.00;;;;;;7383346;19;20014;-63
2022/04/18 02:51:02;;;;;;;5.13;3.45;;;4.90;1.00;;;;;;7357864;19;20013;-63
2022/04/18 02:53:35;;;;;;;5.53;3.42;;;5.00;1.00;;;;;;7358115;19;20481;-63
2022/04/18 02:56:05;;;;;;;4.05;3.60;;;5.10;1.00;;;;;;7358404;19;20074;-63
2022/04/18 02:58:34;;;;;;;7.10;4.03;;;5.10;1.00;;;;;;7367060;19;20077;-62
2022/04/18 03:01:04;;;;;;;5.32;3.55;;;5.00;1.00;;;;;;7365650;19;20010;-63
2022/04/18 03:03:34;;;;;;;5.25;3.55;;;5.00;1.00;;;;;;7388905;19;20459;-63
2022/04/18 03:06:05;;;;;;;8.05;3.67;;;5.00;1.00;;;;;;7367462;19;20481;-62
2022/04/18 03:08:37;;;;;;;5.38;3.55;;;5.00;1.00;;;;;;7370444;19;20019;-63
2022/04/18 03:11:08;;;;;;;4.65;3.50;;;5.10;1.00;;;;;;7366746;19;20007;-63
2022/04/18 03:13:43;;;;;;;5.20;3.60;;;5.00;1.00;;;;;;7365579;19;20082;-63
2022/04/18 03:16:18;;;;;;;5.68;4.00;;;5.00;1.00;;;;;;7367111;19;20014;-63
2022/04/18 03:18:49;;;;;;;5.35;3.35;;;4.90;1.00;;;;;;7370952;19;20015;-63
2022/04/18 03:21:19;;;;;;;4.72;3.65;;;4.90;1.00;;;;;;7386626;19;20025;-63
2022/04/18 03:23:52;;;;;;;5.35;3.42;;;4.80;1.00;;;;;;7365210;19;20429;-63
2022/04/18 03:26:22;;;;;;;5.63;3.77;;;4.80;1.00;;;;;;7362253;19;20484;-63
2022/04/18 03:28:52;;;;;;;5.13;3.50;;;4.80;1.00;;;;;;7367274;19;20355;-63
2022/04/18 03:31:22;;;;;;;4.95;3.45;;;4.70;1.00;;;;;;7363023;19;20343;-63
2022/04/18 03:33:55;;;;;;;6.68;3.47;;;4.70;1.00;;;;;;7363503;19;20050;-63
2022/04/18 03:41:51;;;;;;;;;;;4.80;1.00;;;;;;7363526;19;20017;-63
2022/04/18 03:44:21;;;;;;;4.63;3.42;;;4.80;1.00;;;;;;7365134;19;19974;-62
2022/04/18 03:46:51;;;;;;;4.85;3.55;;;5.00;1.00;;;;;;7369436;19;20007;-63
2022/04/18 03:49:21;;;;;;;6.10;3.80;;;5.10;1.00;;;;;;7368695;19;20014;-63
2022/04/18 03:51:51;;;;;;;5.00;3.40;;;5.10;1.00;;;;;;7369739;19;20025;-62
2022/04/18 03:54:23;;;;;;;5.15;3.70;;;5.10;1.00;;;;;;7392062;19;20014;-62
2022/04/18 03:56:53;;;;;;;5.00;3.13;;;5.10;1.00;;;;;;7371042;19;20022;-62
2022/04/18 03:59:23;;;;;;;3.90;3.20;;;5.10;1.00;;;;;;7368812;19;20047;-61
2022/04/18 04:01:53;;;;;;;4.90;3.25;;;5.00;1.00;;;;;;7369698;19;20025;-61
2022/04/18 04:04:23;;;;;;;4.70;3.40;;;5.00;1.00;;;;;;7363487;19;20035;-61
2022/04/18 04:06:53;;;;;;;7.65;3.42;;;4.90;1.00;;;;;;7370465;19;20014;-62
2022/04/18 04:09:25;;;;;;;6.07;3.70;;;4.70;1.00;;;;;;7391494;19;20027;-62
2022/04/18 04:11:55;;;;;;;4.05;3.10;;;4.70;1.00;;;;;;7368440;19;20022;-62
2022/04/18 04:14:25;;;;;;;4.40;3.28;;;4.70;1.00;;;;;;7368544;19;20019;-62
2022/04/18 04:16:54;;;;;;;4.10;3.50;;;4.70;1.00;;;;;;7370628;19;20086;-62
2022/04/18 04:19:24;;;;;;;5.03;3.53;;;4.60;1.00;;;;;;7368012;19;20086;-62
2022/04/18 04:21:54;;;;;;;5.88;3.95;;;4.50;1.00;;;;;;7368189;19;20415;-63
2022/04/18 04:24:27;;;;;;;5.03;3.33;;;4.40;1.00;;;;;;7391364;19;20016;-62
2022/04/18 04:26:57;;;;;;;3.80;3.28;;;4.40;1.00;;;;;;7367938;19;20016;-63
2022/04/18 04:29:27;;;;;;;5.60;3.90;;;4.40;1.00;;;;;;7370335;19;20010;-62
2022/04/18 04:31:57;;;;;;;6.45;4.15;;;4.40;1.00;;;;;;7369743;19;20086;-62
2022/04/18 04:34:27;;;;;;;5.93;3.80;;;4.40;1.00;;;;;;7369954;19;20021;-63
2022/04/18 04:36:57;;;;;;;4.47;3.50;;;4.50;1.00;;;;;;7368363;19;20003;-62
2022/04/18 04:39:29;;;;;;;6.20;4.03;;;4.40;1.00;;;;;;7389510;19;20014;-62
2022/04/18 04:41:59;;;;;;;5.53;3.45;;;4.50;1.00;;;;;;7369379;19;20423;-62
2022/04/18 04:44:29;;;;;;;4.53;3.40;;;4.50;1.00;;;;;;7368768;19;20011;-62
2022/04/18 04:46:59;;;;;;;3.40;3.00;;;4.90;1.00;;;;;;7369729;19;20016;-62
2022/04/18 04:49:28;;;;;;;3.90;3.10;;;5.90;1.00;;;;;;7369820;19;20920;-62
2022/04/18 04:51:58;;;;;;;4.28;3.60;;;6.80;1.00;;;;;;7369596;19;20478;-62
2022/04/18 04:54:31;;;;;;;6.07;3.55;;;7.30;1.00;;;;;;7390825;19;20010;-62
2022/04/18 04:57:01;;;;;;;7.20;3.60;;;7.70;1.00;;;;;;7367795;19;20014;-62
2022/04/18 04:59:31;;;;;;;4.13;3.60;;;8.30;1.00;;;;;;7369260;19;20014;-63
2022/04/18 05:02:00;;;;;;;4.65;3.65;;;8.50;1.00;;;;;;7367741;19;20188;-62
2022/04/18 05:04:30;;;;;;;4.63;3.42;;;8.80;1.00;;;;;;7368908;19;20017;-62
2022/04/18 05:07:00;;;;;;;4.22;3.50;;;9.40;1.00;;;;;;7369411;19;20119;-62
2022/04/18 05:09:33;;;;;;;3.92;3.40;;;8.90;1.00;;;;;;7390735;19;20080;-62
2022/04/18 05:12:02;;;;;;;5.65;3.33;;;9.40;1.00;;;;;;7368285;19;20497;-62
2022/04/18 05:14:32;;;;;;;5.43;3.72;;;10.50;1.00;;;;;;7366912;19;20013;-62
2022/04/18 05:17:02;;;;;;;6.40;3.95;;;10.50;1.00;;;;;;7367651;19;20015;-63
2022/04/18 05:19:33;;;;;;;6.63;3.83;;;10.80;1.00;;;;;;7365332;19;20032;-63
2022/04/18 05:22:03;;;;;;;4.32;3.47;;;10.90;1.00;;;;;;7364455;19;20138;-63
2022/04/18 05:24:37;;;;;;;4.95;4.07;;;11.30;1.00;;;;;;7388196;19;20102;-63
2022/04/18 05:27:08;;;;;;;5.13;3.65;;;10.80;1.00;;;;;;7368421;19;20016;-63
2022/04/18 05:29:38;;;;;;;5.30;3.90;;;11.00;1.00;;;;;;7367000;19;20781;-63
2022/04/18 05:32:09;;;;;;;5.15;3.83;;;10.50;1.00;;;;;;7366278;19;20134;-62
2022/04/18 05:34:39;;;;;;;5.43;3.55;;;10.50;1.00;;;;;;7366851;19;20009;-63
2022/04/18 05:37:09;;;;;;;6.65;3.75;;;10.00;1.00;;;;;;7364932;19;20533;-62
2022/04/18 05:39:42;;;;;;;7.07;3.67;;;8.60;1.00;;;;;;7367526;19;20477;-63
2022/04/18 05:42:11;;;;;;;6.05;3.38;;;7.20;1.00;;;;;;7389057;19;20117;-62
2022/04/18 05:44:41;;;;;;;4.55;3.35;;;7.10;1.00;;;;;;7365701;19;20506;-63
2022/04/18 05:47:11;;;;;;;3.78;2.85;;;7.30;1.00;;;;;;7367735;19;20359;-62
2022/04/18 05:49:41;;;;;;;5.60;3.08;;;7.20;1.00;;;;;;7364821;19;20070;-62
2022/04/18 05:52:11;;;;;;;4.82;3.35;;;7.00;1.00;;;;;;7364848;19;20487;-63
2022/04/18 05:54:43;;;;;;;3.75;3.05;;;6.80;1.00;;;;;;7366005;19;20029;-64
2022/04/18 05:57:13;;;;;;;4.13;2.92;;;7.00;1.00;;;;;;7387779;19;20478;-62
2022/04/18 05:59:43;;;;;;;4.55;2.60;;;7.10;1.00;;;;;;7368140;19;20086;-64
2022/04/18 06:02:13;;;;;;;4.18;2.95;;;7.20;1.00;;;;;;7367546;19;20077;-64
2022/04/18 06:04:43;;;;;;;6.50;3.95;;;7.40;1.00;;;;;;7366398;19;20482;-63
2022/04/18 06:07:13;;;;;;;4.32;2.70;;;7.60;1.00;;;;;;7367139;19;20017;-62
2022/04/18 06:09:45;;;;;;;5.10;3.53;;;7.60;1.00;;;;;;7366883;19;20010;-62
2022/04/18 06:12:20;;;;;;;5.00;3.17;;;7.40;1.00;;;;;;7388387;19;20017;-62
2022/04/18 06:14:50;;;;;;;5.05;3.25;;;7.40;1.00;;;;;;7364683;19;20081;-63
2022/04/18 06:17:20;;;;;;;4.47;3.42;;;7.40;1.00;;;;;;7366662;19;20017;-62
2022/04/18 06:19:50;;;;;;;3.90;2.95;;;7.50;1.00;;;;;;7366150;19;20010;-62
2022/04/18 06:22:20;;;;;;;3.72;3.10;;;7.70;1.00;;;;;;7365914;19;20010;-62
2022/04/18 06:24:52;;;;;;;6.07;3.40;;;7.50;1.00;;;;;;7365214;19;20010;-63
2022/04/18 06:27:22;;;;;;;3.92;2.90;;;7.20;1.00;;;;;;7388033;19;20014;-62
2022/04/18 06:29:52;;;;;;;4.78;3.15;;;7.30;1.00;;;;;;7366180;19;20086;-63
2022/04/18 06:32:24;;;;;;;8.50;3.20;;;7.50;1.00;;;;;;7365173;19;20420;-62
2022/04/18 06:34:54;;;;;;;5.70;3.38;;;7.70;1.00;;;;;;7365638;19;20345;-62
2022/04/18 06:37:24;;;;;;;4.65;3.00;;;7.70;1.00;;;;;;7366008;19;20086;-62
2022/04/18 06:39:56;;;;;;;3.63;3.17;;;7.70;1.00;;;;;;7363499;19;20018;-62
2022/04/18 06:42:26;;;;;;;4.93;3.58;;;7.80;1.00;;;;;;7387427;19;20017;-62
2022/04/18 06:44:56;;;;;;;4.25;3.35;;;8.30;1.00;;;;;;7363618;19;20017;-62
2022/04/18 06:47:26;;;;;;;5.85;3.20;;;8.20;1.00;;;;;;7365087;19;20011;-62
2022/04/18 06:49:56;;;;;;;5.20;3.47;;;8.10;1.00;;;;;;7363607;19;20021;-62
2022/04/18 06:52:26;;;;;;;5.03;3.42;;;8.50;1.00;;;;;;7365339;19;20069;-63
2022/04/18 06:54:59;;;;;;;5.90;3.63;;;8.60;1.00;;;;;;7364461;19;20418;-62
2022/04/18 06:57:26;;;;;;;5.55;3.47;;;8.90;1.00;;;;;;7386361;19;20078;-62
2022/04/18 06:59:56;;;;;;;7.75;3.67;;;8.60;1.00;;;;;;7364252;19;20086;-63
2022/04/18 07:02:26;;;;;;;5.55;3.35;;;8.90;1.00;;;;;;7364340;19;20015;-64
2022/04/18 07:04:56;;;;;;;5.78;3.40;;;9.20;1.00;;;;;;7363360;19;20010;-64
2022/04/18 07:07:26;;;;;;;5.78;3.45;;;9.30;1.00;;;;;;7365384;19;20049;-62
2022/04/18 07:09:58;;;;;;;4.68;3.53;;;9.10;1.00;;;;;;7364683;19;20026;-62
2022/04/18 07:12:28;;;;;;;4.60;3.22;;;9.20;1.00;;;;;;7385746;19;20478;-63
2022/04/18 07:15:01;;;;;;;6.53;3.55;;;9.00;1.00;;;;;;7362378;19;20014;-63
2022/04/18 07:17:33;;;;;;;4.30;3.45;;;8.90;1.00;;;;;;7363432;19;20011;-62
2022/04/18 07:20:03;;;;;;;5.07;3.70;;;9.00;1.00;;;;;;7364760;19;20086;-62
2022/04/18 07:22:33;;;;;;;6.03;3.47;;;9.10;1.00;;;;;;7363900;19;20070;-63
2022/04/18 07:25:06;;;;;;;4.57;3.47;;;9.30;1.00;;;;;;7363294;19;20911;-64
2022/04/18 07:27:36;;;;;;;6.32;3.45;;;9.40;1.00;;;;;;7380343;19;20007;-62
2022/04/18 07:30:08;;;;;;;5.97;3.53;;;9.10;1.00;;;;;;7386812;19;20896;-62
2022/04/18 07:32:41;;;;;;;4.63;3.25;;;9.50;1.00;;;;;;7364250;19;20096;-63
2022/04/18 07:35:12;;;;;;;6.30;3.80;;;9.60;1.00;;;;;;7364674;19;20072;-63
2022/04/18 07:38:48;;;;;;;5.13;3.40;;;9.50;1.00;;;;;;7364290;19;20018;-63
2022/04/18 07:40:36;;;;;;;5.55;3.80;;;9.90;1.00;;;;;;7364535;19;20092;-63
2022/04/18 07:43:10;;;;;;;5.13;3.50;;;9.70;1.00;;;;;;7365448;19;20026;-63
2022/04/18 07:45:40;;;;;;;4.22;3.30;;;9.90;1.00;;;;;;7367051;19;20019;-63
2022/04/18 07:48:11;;;;;;;6.40;3.47;;;9.80;1.00;;;;;;7393729;19;20018;-63
2022/04/18 07:53:23;;;;;;;6.30;3.47;;;10.00;1.00;;;;;;7371338;19;20525;-63
2022/04/18 07:55:55;;;;;;;5.65;3.78;;;10.20;1.00;;;;;;7368247;19;20488;-64
2022/04/18 07:58:25;;;;;;;6.47;3.70;;;10.20;1.00;;;;;;7370133;19;20010;-64
2022/04/18 08:00:55;;;;;;;6.03;4.00;;;10.10;1.00;;;;;;7368250;19;20032;-63
2022/04/18 08:03:25;;;;;;;5.90;3.47;;;10.60;1.00;;;;;;7393318;19;20024;-63
2022/04/18 08:05:57;;;;;;;6.05;3.72;;;10.20;1.00;;;;;;7370347;19;20007;-63
2022/04/18 08:08:27;;;;;;;5.60;3.72;;;10.30;1.00;;;;;;7369526;19;20014;-63
2022/04/18 08:11:00;;;;;;;5.07;3.40;;;10.70;1.00;;;;;;7366516;19;20570;-64
2022/04/18 08:13:30;;;;;;;7.20;3.42;;;10.70;1.00;;;;;;7370122;19;20035;-63
2022/04/18 08:16:00;;;;;;;5.78;3.70;;;11.00;1.00;;;;;;7369640;19;20021;-63
2022/04/18 08:18:30;;;;;;;6.50;3.85;;;10.80;1.00;;;;;;7390822;19;20011;-63
2022/04/18 08:21:00;;;;;;;5.32;3.75;;;10.90;1.00;;;;;;7369263;19;20006;-63
2022/04/18 08:23:30;;;;;;;5.90;3.50;;;11.00;1.00;;;;;;7370211;19;20419;-63
2022/04/18 08:26:02;;;;;;;10.02;3.88;;;10.90;1.00;;;;;;7369555;19;20034;-63
2022/04/18 08:28:33;;;;;;;5.28;3.78;;;10.90;1.00;;;;;;7370071;19;20473;-63
2022/04/18 08:31:03;;;;;;;6.65;3.80;;;10.90;1.00;;;;;;7370246;19;20024;-63
2022/04/18 08:33:33;;;;;;;5.05;3.72;;;11.00;1.00;;;;;;7391403;19;20006;-61
2022/04/18 08:36:03;;;;;;;4.93;3.42;;;11.20;1.00;;;;;;7369913;19;20013;-64
2022/04/18 08:38:33;;;;;;;6.70;3.85;;;11.60;1.00;;;;;;7367378;19;20114;-63
2022/04/18 08:41:09;;;;;;;4.85;3.30;;;11.80;1.00;;;;;;7367576;19;20086;-63
2022/04/18 08:43:41;;;;;;;4.82;3.85;;;11.60;1.00;;;;;;7368587;19;20022;-64
2022/04/18 08:46:11;;;;;;;7.47;3.88;;;11.50;1.00;;;;;;7369702;19;20491;-63
2022/04/18 08:54:09;;;;;;;6.03;3.67;;;11.80;1.00;;;;;;7368429;19;20085;-63
2022/04/18 08:56:42;;;;;;;5.95;4.00;;;12.10;1.00;;;;;;7368013;19;20098;-63
2022/04/18 08:59:12;;;;;;;4.15;3.38;;;12.30;1.00;;;;;;7368639;19;20057;-63
2022/04/18 09:01:50;;;;;;;6.43;3.30;;;12.70;1.00;;;;;;7368027;19;20031;-64
2022/04/18 09:04:22;;;;;;;4.65;3.58;;;12.80;1.00;;;;;;7367252;19;20011;-63
2022/04/18 09:06:54;;;;;;;3.80;3.10;;;12.80;1.00;;;;;;7368363;19;20030;-63
2022/04/18 09:09:31;;;;;;;4.97;3.33;;;12.40;1.00;;;;;;7389895;19;20011;-63
2022/04/18 09:12:03;;;;;;;5.75;3.05;;;12.70;1.00;;;;;;7368646;19;20363;-64
2022/04/18 09:14:37;;;;;;;6.18;3.50;;;12.90;1.00;;;;;;7367237;19;20019;-63
2022/04/18 09:17:07;;;;;;;4.13;3.17;;;12.70;1.00;;;;;;7369171;19;20017;-64
2022/04/18 09:19:37;;;;;;;5.40;3.70;;;13.20;1.00;;;;;;7366706;19;20482;-62
2022/04/18 09:22:07;;;;;;;5.05;3.25;;;12.90;1.00;;;;;;7364970;19;20110;-64
2022/04/18 09:24:38;;;;;;;5.68;3.50;;;12.80;1.00;;;;;;7368542;19;20018;-64
2022/04/18 09:27:27;;;;;;;5.70;3.50;;;13.00;1.00;;;;;;7390350;19;20109;-63
2022/04/18 09:30:04;;;;;;;3.85;3.30;;;13.40;1.00;;;;;;7364227;19;20040;-62
2022/04/18 09:32:34;;;;;;;5.57;3.60;;;13.20;1.00;;;;;;7366400;19;20014;-63
2022/04/18 09:35:06;;;;;;;6.07;3.85;;;13.10;1.00;;;;;;7367454;19;20015;-64
2022/04/18 09:37:36;;;;;;;4.38;3.30;;;13.00;1.00;;;;;;7367051;19;20404;-64
2022/04/18 09:40:08;;;;;;;4.28;3.20;;;13.40;1.00;;;;;;7367916;19;20019;-63
2022/04/18 09:42:40;;;;;;;4.82;3.65;;;13.30;1.00;;;;;;7366375;19;20020;-63
2022/04/18 09:45:11;;;;;;;6.28;3.72;;;13.50;1.00;;;;;;7387454;19;20016;-62
2022/04/18 09:47:41;;;;;;;6.13;3.50;;;13.40;1.00;;;;;;7367647;19;20014;-63
2022/04/18 09:50:58;;;;;;;7.32;3.53;;;13.60;1.00;;;;;;7367383;19;20105;-64
2022/04/18 09:53:09;;;;;;;5.15;3.33;;;13.80;1.00;;;;;;7365700;19;20526;-63
2022/04/18 09:55:40;;;;;;;5.75;3.22;;;13.90;1.00;;;;;;7363965;19;20021;-63
2022/04/18 09:58:12;;;;;;;3.10;2.80;;;13.60;1.00;;;;;;7365692;19;20010;-63
2022/04/18 10:01:05;;;;;;;4.57;3.28;;;13.80;1.00;;;;;;7363576;19;20482;-63
2022/04/18 10:03:36;;;;;;;4.53;3.15;;;13.70;1.00;;;;;;7387336;19;20103;-64
2022/04/18 10:06:08;;;;;;;5.47;3.25;;;14.00;1.00;;;;;;7366508;19;20074;-64
2022/04/18 10:08:38;;;;;;;4.85;2.90;;;14.40;1.00;;;;;;7364622;19;20014;-63
2022/04/18 10:11:11;;;;;;;5.28;3.22;;;14.80;1.00;;;;;;7366205;19;20019;-64
2022/04/18 10:13:43;;;;;;;4.25;3.05;;;15.00;1.00;;;;;;7364891;19;20038;-63
2022/04/18 10:16:16;;;;;;;3.42;3.05;;;14.80;1.00;;;;;;7365908;19;20010;-63
2022/04/18 10:18:50;;;;;;;4.40;3.10;;;14.50;1.00;;;;;;7364438;19;20025;-64
2022/04/18 10:21:29;;;;;;;6.03;3.33;;;14.20;1.00;;;;;;7387152;19;20014;-63
2022/04/18 10:24:28;;;;;;;5.18;3.30;;;14.50;1.00;;;;;;7365207;19;20010;-63
2022/04/18 10:27:28;;;;;;;5.40;2.90;;;14.20;1.00;;;;;;7365765;19;20443;-62
2022/04/18 10:30:03;;;;;;;5.30;3.05;;;14.50;1.00;;;;;;7365569;19;20358;-63
2022/04/18 10:32:33;;;;;;;4.68;3.13;;;14.30;1.00;;;;;;7365320;19;20013;-63
2022/04/18 10:35:05;;;;;;;4.57;3.22;;;14.40;1.00;;;;;;7365676;19;20013;-63
2022/04/18 10:37:35;;;;;;;3.75;2.85;;;14.40;1.00;;;;;;7365724;19;20011;-63
2022/04/18 10:40:08;;;;;;;3.97;2.90;;;14.40;1.00;;;;;;7364708;19;20010;-63
2022/04/18 10:42:40;;;;;;;3.97;2.40;;;14.40;1.00;;;;;;7364547;19;20088;-64
2022/04/18 10:45:20;;;;;;;4.13;3.05;;;14.80;1.00;;;;;;7386753;19;20135;-63
2022/04/18 10:48:13;;;;;;;4.97;3.20;;;14.50;1.00;;;;;;7365837;19;20019;-64
2022/04/18 10:50:51;;;;;;;4.25;3.15;;;14.40;1.00;;;;;;7365595;19;20465;-63
2022/04/18 10:53:36;;;;;;;3.92;2.80;;;14.60;1.00;;;;;;7366038;19;20488;-63
2022/04/18 10:56:14;;;;;;;5.40;2.97;;;14.80;1.00;;;;;;7364773;19;20010;-63
2022/04/18 10:58:48;;;;;;;5.47;3.38;;;15.10;1.00;;;;;;7362824;19;20011;-65
2022/04/18 11:01:21;;;;;;;4.43;3.40;;;14.80;1.00;;;;;;7363477;19;20006;-64
2022/04/18 11:04:00;;;;;;;5.55;3.20;;;14.60;1.00;;;;;;7364562;19;20015;-63
2022/04/18 11:06:46;;;;;;;4.55;3.13;;;15.00;1.00;;;;;;7383459;19;20014;-63
2022/04/18 11:09:19;;;;;;;4.30;3.25;;;14.90;1.00;;;;;;7364372;19;20010;-63
2022/04/18 11:11:52;;;;;;;4.57;3.00;;;15.20;1.00;;;;;;7363285;19;20077;-62
2022/04/18 11:14:24;;;;;;;4.07;2.90;;;14.90;1.00;;;;;;7355265;19;20069;-64
2022/04/18 11:17:01;;;;;;;4.05;2.90;;;14.10;1.00;;;;;;7354398;19;20070;-64
2022/04/18 11:19:33;;;;;;;3.75;2.95;;;15.00;1.00;;;;;;7360086;19;20023;-63
2022/04/18 11:22:07;;;;;;;4.63;3.05;;;15.00;1.00;;;;;;7362252;19;20025;-64
2022/04/18 11:24:39;;;;;;;4.65;2.92;;;15.10;1.00;;;;;;7363733;19;20018;-64
2022/04/18 11:27:12;;;;;;;6.78;2.80;;;15.40;1.00;;;;;;7384201;19;20759;-63
2022/04/18 11:29:43;;;;;;;4.47;2.85;;;15.10;1.00;;;;;;7362620;19;20019;-63
2022/04/18 11:32:20;;;;;;;4.18;2.65;;;14.80;1.00;;;;;;7362057;19;20021;-64
2022/04/18 11:34:52;;;;;;;4.32;2.65;;;15.20;1.00;;;;;;7362773;19;20507;-64
2022/04/18 11:37:26;;;;;;;6.60;2.92;;;15.30;1.00;;;;;;7362843;19;20588;-63
2022/04/18 11:39:58;;;;;;;3.97;2.63;;;15.50;1.00;;;;;;7360968;19;20004;-65
2022/04/18 11:42:31;;;;;;;3.10;2.40;;;15.30;1.00;;;;;;7384329;19;21197;-63
2022/04/18 11:45:03;;;;;;;3.97;2.50;;;15.40;1.00;;;;;;7360338;19;20014;-64
2022/04/18 11:47:41;;;;;;;4.60;3.05;;;15.90;1.00;;;;;;7363281;19;20383;-64
2022/04/18 11:50:12;;;;;;;3.03;2.58;;;15.60;1.00;;;;;;7368415;19;20498;-63
2022/04/18 11:52:44;;;;;;;3.85;2.85;;;15.60;1.00;;;;;;7368975;19;20018;-63
2022/04/18 11:55:17;;;;;;;3.72;2.75;;;15.90;1.00;;;;;;7366199;19;20459;-63
2022/04/18 11:57:48;;;;;;;5.27;2.60;;;15.30;1.00;;;;;;7369578;19;20022;-63
2022/04/18 12:06:44;;;;;;;5.43;2.90;;;15.60;1.00;;;;;;7388568;19;20086;-64
2022/04/18 12:08:41;;;;;;;5.40;2.97;;;16.00;1.00;;;;;;7365937;19;20023;-62
2022/04/18 12:11:11;;;;;;;5.43;2.65;;;16.10;1.00;;;;;;7363398;19;20134;-63
2022/04/18 12:13:46;;;;;;;4.00;2.60;;;16.00;1.00;;;;;;7362242;19;20020;-63
2022/04/18 12:16:23;;;;;;;5.78;2.88;;;16.00;1.00;;;;;;7367214;19;20021;-64
2022/04/18 12:18:58;;;;;;;4.90;2.97;;;16.30;1.00;;;;;;7369180;19;20018;-63
2022/04/18 12:21:29;;;;;;;4.63;2.47;;;15.90;1.00;;;;;;7392073;19;20346;-64
2022/04/18 12:24:00;;;;;;;4.18;2.78;;;15.90;1.00;;;;;;7368356;19;20378;-64
2022/04/18 12:26:31;;;;;;;3.17;2.50;;;16.30;1.00;;;;;;7369242;19;20010;-64
2022/04/18 12:29:02;;;;;;;4.22;2.40;;;16.10;1.00;;;;;;7368878;19;20025;-63
2022/04/18 12:31:32;;;;;;;3.47;2.55;;;16.20;1.00;;;;;;7369251;19;20438;-64
2022/04/18 12:34:05;;;;;;;2.92;2.30;;;16.10;1.00;;;;;;7366492;19;20010;-62
2022/04/18 12:36:36;;;;;;;4.55;2.58;;;16.10;1.00;;;;;;7390855;19;20028;-65
2022/04/18 12:39:06;;;;;;;4.43;2.55;;;16.10;1.00;;;;;;7368351;19;20011;-63
2022/04/18 12:41:38;;;;;;;3.33;2.38;;;16.30;1.00;;;;;;7369405;19;20025;-64
2022/04/18 12:44:14;;;;;;;4.15;2.53;;;16.30;1.00;;;;;;7367099;19;20127;-64
2022/04/18 12:46:45;;;;;;;3.40;2.28;;;16.40;1.00;;;;;;7369067;19;20018;-64
2022/04/18 12:49:18;;;;;;;4.00;2.05;;;16.50;1.00;;;;;;7367417;19;20007;-63
2022/04/18 12:51:54;;;;;;;2.53;1.92;;;16.40;1.00;;;;;;7368713;19;20498;-64
2022/04/18 12:54:26;;;;;;;3.55;2.30;;;16.40;1.00;;;;;;7389499;19;20024;-65
2022/04/18 12:56:55;;;;;;;3.22;2.33;;;16.20;1.00;;;;;;7365653;19;20828;-64
2022/04/18 12:59:27;;;;;;;4.38;2.15;;;16.40;1.00;;;;;;7364997;19;20031;-64
2022/04/18 13:02:07;;;;;;;3.90;2.20;;;16.70;1.00;;;;;;7368336;19;20086;-66
2022/04/18 13:04:43;;;;;;;3.40;2.22;;;16.40;1.00;;;;;;7367380;19;20016;-64
2022/04/18 13:07:13;;;;;;;3.28;1.92;;;16.70;1.00;;;;;;7367469;19;20097;-63
2022/04/18 13:09:43;;;;;;;3.80;2.40;;;16.40;1.00;;;;;;7367958;19;20027;-68
2022/04/18 13:12:13;;;;;;;2.80;2.00;;;16.70;1.00;;;;;;7389376;19;20014;-65
2022/04/18 13:15:02;;;;;;;4.13;2.50;;;16.70;1.00;;;;;;7364792;19;20070;-64
2022/04/18 13:17:33;;;;;;;3.47;2.33;;;16.60;1.00;;;;;;7366539;19;20007;-64
2022/04/18 13:20:07;;;;;;;3.53;2.10;;;16.30;1.00;;;;;;7367219;19;20034;-64
2022/04/18 13:22:38;;;;;;;4.05;2.35;;;16.40;1.00;;;;;;7367353;19;20114;-64
2022/04/18 13:25:12;;;;;;;2.47;2.10;;;16.40;1.00;;;;;;7363028;19;20018;-64
2022/04/18 13:27:42;;;;;;;4.65;2.55;;;16.40;1.00;;;;;;7365463;19;20704;-63
2022/04/18 13:30:13;;;;;;;4.28;2.40;;;16.50;1.00;;;;;;7386591;19;20070;-63
2022/04/18 13:32:43;;;;;;;3.13;2.33;;;16.30;1.00;;;;;;7367393;19;20011;-63
2022/04/18 13:35:17;;;;;;;3.28;1.92;;;16.50;1.00;;;;;;7366704;19;20006;-63
2022/04/18 13:37:47;;;;;;;3.63;2.15;;;16.60;1.00;;;;;;7367407;19;20007;-64
2022/04/18 13:40:19;;;;;;;3.30;1.90;;;16.60;1.00;;;;;;7366321;19;20010;-64
2022/04/18 13:42:49;;;;;;;5.35;3.03;;;16.50;1.00;;;;;;7365203;19;20006;-64
2022/04/18 13:45:19;;;;;;;3.80;2.08;;;16.80;1.00;;;;;;7387583;19;20045;-64
2022/04/18 13:47:49;;;;;;;4.30;1.95;;;17.00;1.00;;;;;;7367184;19;20094;-64
2022/04/18 13:50:21;;;;;;;3.22;1.98;;;16.60;1.00;;;;;;7366087;19;20040;-65
2022/04/18 13:52:51;;;;;;;4.65;2.38;;;16.70;1.00;;;;;;7367071;19;20017;-66